F/V Matmaco — FVNS — position and weather

sailwx.info

Track history (hours):
 
Tides and Currents Weather Stations Pressure Air Temp Water Temp Dewpoint Dewpoint Depression Visibility Wind Speed Wind Dir Waves Ship Positions

F/V Matmaco

Last reported at 2015-May-13 03:11 UTC. Time now 2015-May-23 05:49 UTC.
Position N 46°30' W 002°56'.
Warning: this ship's position is 10 days out of date.

Length 20 m.

Type: Other ship. MMSI: 228194000.

Date/timePositionNaut miles runAvg speedWind from/ knotsBaromVisibWave heightAir tempDewpointWater temp
2015-May-13 03:11N 46°30' W 002°56'14 3.8
2015-May-12 23:28N 46°16' W 002°50'16 1.0
2015-May-12 07:29N 46°29' W 003°03'4 3.3
2015-May-12 06:24N 46°29' W 002°58'31 6.2
2015-May-12 01:21N 46°59' W 002°44'9 9.9
2015-May-12 00:27N 47°07' W 002°40'1010.2
2015-May-11 23:28N 47°16' W 002°35'3 3.2
2015-May-11 22:30N 47°18' W 002°31'0 0.5
2015-May-11 21:33N 47°18' W 002°31'7 7.3
2015-May-11 20:33N 47°13' W 002°38'9 9.1
2015-May-11 19:32N 47°05' W 002°45'9 9.5
2015-May-11 18:33N 46°57' W 002°52'9 9.5
2015-May-11 17:33N 46°48' W 002°58'7 7.0
2015-May-11 16:33N 46°43' W 003°04'5 3.6
2015-May-11 15:14N 46°39' W 003°08'8 2.8
2015-May-11 12:18N 46°31' W 003°05'2 3.0
2015-May-11 11:29N 46°29' W 003°02'3 3.4
2015-May-11 10:33N 46°26' W 003°02'3 2.9
2015-May-11 09:26N 46°29' W 003°04'4 3.3
2015-May-11 08:08N 46°33' W 003°06'2 3.2
2015-May-11 07:33N 46°31' W 003°06'4 3.3
2015-May-11 06:20N 46°29' W 003°01'4 1.1
2015-May-11 02:16N 46°26' W 002°55'13 0.8
2015-May-10 09:26N 46°36' W 003°08'9 3.0
2015-May-10 06:33N 46°29' W 003°01'  
2015-May-07 22:09N 47°19' W 002°32'  
Track history (hours):
 
Tides and Currents Weather Stations Pressure Air Temp Water Temp Dewpoint Dewpoint Depression Visibility Wind Speed Wind Dir Waves Ship Positions

F/V Matmaco

Last reported at 2015-May-13 03:11 UTC. Time now 2015-May-23 05:49 UTC.
Position N 46°30' W 002°56'.
Warning: this ship's position is 10 days out of date.

Length 20 m.

Type: Other ship. MMSI: 228194000.

Date/timePositionNaut miles runAvg speedWind from/ knotsBaromVisibWave heightAir tempDewpointWater temp
2015-May-13 03:11N 46°30' W 002°56'14 3.8
2015-May-12 23:28N 46°16' W 002°50'16 1.0
2015-May-12 07:29N 46°29' W 003°03'4 3.3
2015-May-12 06:24N 46°29' W 002°58'31 6.2
2015-May-12 01:21N 46°59' W 002°44'9 9.9
2015-May-12 00:27N 47°07' W 002°40'1010.2
2015-May-11 23:28N 47°16' W 002°35'3 3.2
2015-May-11 22:30N 47°18' W 002°31'0 0.5
2015-May-11 21:33N 47°18' W 002°31'7 7.3
2015-May-11 20:33N 47°13' W 002°38'9 9.1
2015-May-11 19:32N 47°05' W 002°45'9 9.5
2015-May-11 18:33N 46°57' W 002°52'9 9.5
2015-May-11 17:33N 46°48' W 002°58'7 7.0
2015-May-11 16:33N 46°43' W 003°04'5 3.6
2015-May-11 15:14N 46°39' W 003°08'8 2.8
2015-May-11 12:18N 46°31' W 003°05'2 3.0
2015-May-11 11:29N 46°29' W 003°02'3 3.4
2015-May-11 10:33N 46°26' W 003°02'3 2.9
2015-May-11 09:26N 46°29' W 003°04'4 3.3
2015-May-11 08:08N 46°33' W 003°06'2 3.2
2015-May-11 07:33N 46°31' W 003°06'4 3.3
2015-May-11 06:20N 46°29' W 003°01'4 1.1
2015-May-11 02:16N 46°26' W 002°55'13 0.8
2015-May-10 09:26N 46°36' W 003°08'9 3.0
2015-May-10 06:33N 46°29' W 003°01'  
2015-May-07 22:09N 47°19' W 002°32'  

Dump ship's entire track history